Terminal Aerodrome Forecast
Issued by NWS

Home | Current Version | Previous Version | Text Only | Print | Product List | Glossary On
Versions: 1 2 3 4 5 6 7 8 9 10 11 12 13 14 15 16 17 18 19 20 21 22 23 24 25 26 27 28
000
FTUS46 KMTR 200531
TAFSFO
TAF
KSFO 200531Z 2006/2112 14015G25KT 6SM -RA OVC025
     FM200900 15015G25KT 4SM RA OVC015
     FM201800 17020G30KT 2SM -RA BR OVC015
     FM210300 16030G38KT 5SM -SHRA BKN015 OVC025
     FM210900 16024G32KT P6SM -SHRA BKN030=

USA.gov is the U.S. government's official web portal to all federal, state and local government web resources and services.